Time;durP1;ratioP1;P1;durP2;ratioP2;P2;SDS_P1;SDS_P2;PMS_P1;PMS_P2;Temp;Humidity;BMP_temperature;BMP_pressure;BME280_temperature;BME280_humidity;BME280_pressure;Samples;Min_cycle;Max_cycle;Signal;HPM_P1;HPM_P2
2024/01/09 00:04:49;;;;;;;7.68;2.70;;;;;;;-3.83;57.18;101831.09;10461804;28;20105;-63
2024/01/09 00:09:50;;;;;;;6.75;2.50;;;;;;;-3.81;57.18;101834.53;10454015;28;20374;-63
2024/01/09 00:14:52;;;;;;;11.82;3.53;;;;;;;-3.88;57.46;101837.38;10445121;28;20823;-64
2024/01/09 00:19:53;;;;;;;9.65;3.90;;;;;;;-3.86;57.41;101840.81;10424905;28;20065;-64
2024/01/09 00:24:55;;;;;;;12.63;4.22;;;;;;;-3.82;57.21;101847.69;10448958;28;20542;-64
2024/01/09 00:29:56;;;;;;;8.45;3.15;;;;;;;-3.87;57.19;101839.97;10423767;28;20041;-64
2024/01/09 00:34:58;;;;;;;11.90;3.45;;;;;;;-3.88;57.01;101832.97;10441513;28;20056;-64
2024/01/09 00:39:59;;;;;;;11.00;4.03;;;;;;;-3.89;57.21;101833.91;10424622;28;20483;-63
2024/01/09 00:45:01;;;;;;;6.25;3.00;;;;;;;-3.91;57.54;101842.72;10384468;28;20362;-64
2024/01/09 00:50:03;;;;;;;12.18;4.50;;;;;;;-3.93;57.41;101840.16;10404597;28;20041;-63
2024/01/09 00:55:05;;;;;;;10.63;3.85;;;;;;;-3.96;57.33;101834.97;10404692;28;20060;-63
2024/01/09 01:00:07;;;;;;;10.80;3.25;;;;;;;-3.99;57.61;101829.81;10403539;28;20088;-64
2024/01/09 01:05:08;;;;;;;12.40;4.40;;;;;;;-3.98;57.08;101828.91;10389939;28;20057;-63
2024/01/09 01:10:13;;;;;;;8.20;3.83;;;;;;;-4.05;57.78;101835.25;10399058;28;20095;-60
2024/01/09 01:15:20;;;;;;;11.40;3.45;;;;;;;-4.03;57.83;101828.19;10382814;28;20041;-61
2024/01/09 01:20:21;;;;;;;15.40;4.50;;;;;;;-4.06;58.01;101828.28;10397012;28;20038;-61
2024/01/09 01:25:23;;;;;;;10.70;3.17;;;;;;;-4.05;57.72;101828.25;10402776;28;20115;-60
2024/01/09 01:30:25;;;;;;;12.23;3.20;;;;;;;-4.05;57.77;101836.13;10397764;28;20123;-61
2024/01/09 01:35:26;;;;;;;10.05;3.05;;;;;;;-4.04;57.62;101835.22;10402474;28;20135;-60
2024/01/09 01:40:28;;;;;;;7.82;3.17;;;;;;;-4.13;58.19;101827.59;10412045;28;20048;-62
2024/01/09 01:45:29;;;;;;;10.32;4.13;;;;;;;-4.10;57.95;101826.66;10441517;28;20790;-60
2024/01/09 01:50:32;;;;;;;9.18;4.20;;;;;;;-4.15;58.18;101816.28;10438670;28;20033;-60
2024/01/09 01:55:34;;;;;;;8.70;2.80;;;;;;;-4.19;57.94;101812.91;10423719;28;20492;-60
2024/01/09 02:00:36;;;;;;;8.95;3.40;;;;;;;-4.15;58.17;101818.91;10424674;28;20044;-60
2024/01/09 02:05:38;;;;;;;8.13;3.30;;;;;;;-4.16;57.97;101821.59;10421751;28;20075;-61
2024/01/09 02:10:39;;;;;;;8.75;3.05;;;;;;;-4.18;58.14;101809.34;10441036;28;20037;-60
2024/01/09 02:15:41;;;;;;;9.20;2.83;;;;;;;-4.14;57.98;101814.53;10435746;28;20048;-61
2024/01/09 02:20:42;;;;;;;8.15;3.08;;;;;;;-4.11;57.65;101811.78;10437547;28;20050;-61
2024/01/09 02:25:45;;;;;;;10.63;2.97;;;;;;;-4.13;58.08;101805.72;10436545;28;20249;-61
2024/01/09 02:30:47;;;;;;;11.88;2.97;;;;;;;-4.18;58.16;101806.72;10426044;28;20037;-61
2024/01/09 02:35:49;;;;;;;5.15;2.38;;;;;;;-4.16;57.84;101816.34;10440044;28;20049;-61
2024/01/09 02:40:50;;;;;;;7.55;2.63;;;;;;;-4.16;57.80;101811.09;10437538;28;20053;-61
2024/01/09 02:45:52;;;;;;;7.95;2.67;;;;;;;-4.18;58.02;101819.84;10439208;28;20053;-61
2024/01/09 02:50:53;;;;;;;9.63;2.75;;;;;;;-4.16;58.20;101814.56;10439682;28;20037;-61
2024/01/09 02:55:55;;;;;;;10.07;2.75;;;;;;;-4.19;58.13;101812.91;10435301;28;20041;-61
2024/01/09 03:00:56;;;;;;;8.60;2.50;;;;;;;-4.18;58.16;101800.63;10441152;28;21002;-61
2024/01/09 03:05:57;;;;;;;8.65;2.05;;;;;;;-4.23;57.82;101790.25;10437762;28;20063;-61
2024/01/09 03:10:59;;;;;;;14.02;2.95;;;;;;;-4.26;58.13;101790.34;10448541;28;20048;-62
2024/01/09 03:16:00;;;;;;;8.73;3.47;;;;;;;-4.27;57.90;101785.13;10446094;28;20052;-61
2024/01/09 03:21:02;;;;;;;7.63;3.35;;;;;;;-4.32;58.13;101785.28;10448066;28;20041;-61
2024/01/09 03:26:03;;;;;;;8.32;2.88;;;;;;;-4.32;58.27;101790.53;10452169;28;20063;-62
2024/01/09 03:31:05;;;;;;;8.32;3.08;;;;;;;-4.41;57.97;101786.41;10449529;28;20064;-64
2024/01/09 03:36:07;;;;;;;10.32;2.67;;;;;;;-4.40;57.99;101792.53;10444027;28;20045;-62
2024/01/09 03:41:08;;;;;;;7.18;2.75;;;;;;;-4.40;58.00;101787.28;10444219;28;20064;-63
2024/01/09 03:46:10;;;;;;;11.77;3.40;;;;;;;-4.41;58.41;101786.41;10427362;28;20077;-63
2024/01/09 03:51:11;;;;;;;5.47;2.13;;;;;;;-4.47;57.75;101802.31;10447848;28;20056;-64
2024/01/09 03:56:13;;;;;;;6.47;2.50;;;;;;;-4.48;58.30;101799.72;10448807;28;20409;-63
2024/01/09 04:01:14;;;;;;;12.30;2.67;;;;;;;-4.46;57.86;101804.06;10422876;28;20045;-63
2024/01/09 04:06:16;;;;;;;10.80;2.50;;;;;;;-4.46;58.12;101801.44;10441549;28;20461;-63
2024/01/09 04:11:18;;;;;;;8.35;2.75;;;;;;;-4.46;58.19;101792.72;10450601;28;20657;-62
2024/01/09 04:16:19;;;;;;;10.27;2.72;;;;;;;-4.46;57.58;101790.09;10449565;28;20098;-63
2024/01/09 04:21:21;;;;;;;6.78;2.63;;;;;;;-4.49;58.07;101784.91;10444254;28;20128;-62
2024/01/09 04:26:22;;;;;;;8.90;2.50;;;;;;;-4.51;57.66;101789.34;10445022;28;20064;-63
2024/01/09 04:31:24;;;;;;;7.03;1.85;;;;;;;-4.50;57.90;101794.56;10426753;28;20061;-62
2024/01/09 04:36:26;;;;;;;3.05;1.40;;;;;;;-4.50;58.23;101797.19;10444986;28;20044;-64
2024/01/09 04:41:27;;;;;;;6.07;2.22;;;;;;;-4.51;58.13;101786.72;10420544;28;20068;-61
2024/01/09 04:46:29;;;;;;;6.82;1.85;;;;;;;-4.52;57.89;101788.50;10443046;28;20052;-61
2024/01/09 04:51:31;;;;;;;5.38;1.88;;;;;;;-4.49;57.76;101787.53;10444215;28;20084;-61
2024/01/09 04:56:33;;;;;;;8.40;2.83;;;;;;;-4.52;57.77;101772.75;10442433;28;20052;-62
2024/01/09 05:01:34;;;;;;;8.75;2.03;;;;;;;-4.51;57.89;101763.97;10445156;28;20044;-62
2024/01/09 05:06:36;;;;;;;6.43;2.05;;;;;;;-4.49;57.61;101774.41;10445640;28;20124;-61
2024/01/09 05:11:37;;;;;;;6.05;2.03;;;;;;;-4.50;57.46;101764.81;10444487;28;20128;-63
2024/01/09 05:16:39;;;;;;;8.52;1.67;;;;;;;-4.47;57.38;101764.72;10437208;28;20041;-61
2024/01/09 05:21:41;;;;;;;7.20;2.28;;;;;;;-4.46;57.56;101761.22;10439576;28;20045;-61
2024/01/09 05:26:42;;;;;;;6.05;1.77;;;;;;;-4.44;57.22;101751.53;10441468;28;20055;-63
2024/01/09 05:31:44;;;;;;;10.30;1.90;;;;;;;-4.44;57.78;101754.16;10440319;28;20052;-60
2024/01/09 05:36:45;;;;;;;4.68;1.33;;;;;;;-4.42;57.31;101745.31;10440915;28;20446;-61
2024/01/09 05:41:47;;;;;;;5.60;1.60;;;;;;;-4.38;57.47;101756.59;10438789;28;20033;-60
2024/01/09 05:46:50;;;;;;;4.90;1.80;;;;;;;-4.39;57.84;101757.50;10435272;28;20045;-60
2024/01/09 05:51:52;;;;;;;6.60;2.72;;;;;;;-4.37;57.07;101758.31;10452924;28;20048;-60
2024/01/09 05:56:53;;;;;;;5.78;1.67;;;;;;;-4.39;57.90;101773.25;10428313;28;20381;-60
2024/01/09 06:01:55;;;;;;;6.95;1.90;;;;;;;-4.33;57.45;101767.81;10444529;28;20080;-60
2024/01/09 06:06:56;;;;;;;7.30;1.95;;;;;;;-4.33;57.33;101766.94;10438207;28;20048;-60
2024/01/09 06:11:58;;;;;;;3.92;1.25;;;;;;;-4.33;57.62;101782.69;10444283;28;20123;-60
2024/01/09 06:16:59;;;;;;;4.60;1.35;;;;;;;-4.32;56.89;101776.56;10438123;28;20458;-60
2024/01/09 06:22:01;;;;;;;5.03;2.13;;;;;;;-4.30;56.92;101775.59;10443454;28;20063;-60
2024/01/09 06:27:02;;;;;;;8.10;2.08;;;;;;;-4.31;57.35;101773.00;10437712;28;20049;-60
2024/01/09 06:32:04;;;;;;;4.75;2.38;;;;;;;-4.32;57.22;101782.66;10426060;28;20055;-61
2024/01/09 06:37:05;;;;;;;5.97;1.80;;;;;;;-4.32;57.07;101780.03;10423356;28;20048;-60
2024/01/09 06:42:07;;;;;;;4.78;1.58;;;;;;;-4.35;57.53;101782.75;10440116;28;20049;-61
2024/01/09 06:47:08;;;;;;;6.95;1.67;;;;;;;-4.36;57.28;101774.91;10438087;28;20057;-61
2024/01/09 06:52:10;;;;;;;6.72;2.35;;;;;;;-4.36;56.79;101783.66;10436803;28;20072;-61
2024/01/09 06:57:11;;;;;;;5.68;1.55;;;;;;;-4.39;57.24;101791.59;10442569;28;20060;-60
2024/01/09 07:02:12;;;;;;;3.30;1.73;;;;;;;-4.42;57.81;101789.09;10438925;28;20058;-60
2024/01/09 07:07:14;;;;;;;6.45;1.85;;;;;;;-4.41;57.52;101777.66;10437843;28;20049;-61
2024/01/09 07:12:16;;;;;;;3.83;1.25;;;;;;;-4.42;57.28;101786.47;10433011;28;20045;-61
2024/01/09 07:17:17;;;;;;;8.30;2.22;;;;;;;-4.43;57.85;101796.06;10421056;28;20144;-61
2024/01/09 07:22:19;;;;;;;6.32;1.83;;;;;;;-4.35;57.14;101792.38;10437763;28;20064;-67
2024/01/09 07:27:20;;;;;;;5.78;1.52;;;;;;;-4.30;57.14;101796.59;10438057;28;20648;-66
2024/01/09 07:32:22;;;;;;;5.22;1.45;;;;;;;-4.20;56.57;101791.94;10440562;28;20041;-66
2024/01/09 07:37:23;;;;;;;8.02;2.35;;;;;;;-4.14;56.84;101804.88;10443843;28;20564;-66
2024/01/09 07:42:25;;;;;;;7.38;1.73;;;;;;;-4.07;56.44;101814.31;10426537;28;20424;-66
2024/01/09 07:47:26;;;;;;;9.25;1.88;;;;;;;-4.04;56.43;101808.09;10437931;28;20052;-66
2024/01/09 07:52:28;;;;;;;6.90;2.13;;;;;;;-3.96;56.36;101813.13;10439423;28;20106;-66
2024/01/09 07:57:30;;;;;;;8.18;1.67;;;;;;;-3.98;56.68;101821.03;10442219;28;20037;-66
2024/01/09 08:02:32;;;;;;;6.40;2.22;;;;;;;-3.92;56.44;101830.50;10446137;28;20122;-66
2024/01/09 08:07:34;;;;;;;6.47;2.35;;;;;;;-3.90;56.49;101828.69;10443857;28;20049;-63
2024/01/09 08:12:35;;;;;;;6.95;2.08;;;;;;;-3.83;56.13;101815.31;10448579;28;20041;-61
2024/01/09 08:17:37;;;;;;;6.22;1.63;;;;;;;-3.76;56.01;101823.00;10448591;28;20052;-65
2024/01/09 08:22:38;;;;;;;5.63;1.48;;;;;;;-3.69;56.10;101811.38;10443531;28;20084;-64
2024/01/09 08:27:40;;;;;;;6.97;1.92;;;;;;;-3.67;55.75;101823.59;10451055;28;20047;-63
2024/01/09 08:32:41;;;;;;;6.97;2.28;;;;;;;-3.61;56.08;101820.75;10450557;28;20043;-62
2024/01/09 08:37:43;;;;;;;5.68;1.80;;;;;;;-3.53;56.06;101820.53;10422532;28;20477;-65
2024/01/09 08:42:44;;;;;;;7.47;1.88;;;;;;;-3.42;55.87;101814.91;10448901;28;20048;-67
2024/01/09 08:47:46;;;;;;;7.10;2.38;;;;;;;-3.30;55.48;101808.38;10443793;28;20055;-65
2024/01/09 08:52:48;;;;;;;2.88;1.38;;;;;;;-3.22;55.38;101812.50;10408983;28;20049;-62
2024/01/09 08:57:49;;;;;;;4.97;1.50;;;;;;;-3.10;55.19;101807.72;10423095;28;21076;-62
2024/01/09 09:02:51;;;;;;;6.35;2.13;;;;;;;-3.02;55.09;101813.56;10442883;28;20073;-63
2024/01/09 09:07:53;;;;;;;7.80;2.08;;;;;;;-2.92;54.80;101799.22;10446151;28;20392;-64
2024/01/09 09:12:54;;;;;;;9.65;2.35;;;;;;;-2.85;54.91;101810.38;10449692;28;20051;-63
2024/01/09 09:17:56;;;;;;;5.82;1.73;;;;;;;-2.73;54.69;101807.28;10445802;28;20036;-67
2024/01/09 09:22:58;;;;;;;7.50;2.58;;;;;;;-2.61;54.63;101814.78;10445634;28;20060;-67
2024/01/09 09:28:00;;;;;;;6.40;2.20;;;;;;;-2.52;54.52;101816.19;10443535;28;20479;-66
2024/01/09 09:33:01;;;;;;;6.38;1.85;;;;;;;-2.44;54.43;101813.28;10440775;28;20073;-66
2024/01/09 09:38:04;;;;;;;6.88;1.73;;;;;;;-2.33;54.17;101820.78;10423682;28;20056;-67
2024/01/09 09:43:11;;;;;;;6.72;2.15;;;;;;;-2.23;54.09;101814.28;10438171;28;20064;-66
2024/01/09 09:48:15;;;;;;;7.60;2.15;;;;;;;-2.14;53.78;101811.28;10438559;28;20068;-67
2024/01/09 09:53:18;;;;;;;5.50;2.75;;;;;;;-2.13;53.96;101805.13;10436371;28;20046;-67
2024/01/09 09:58:19;;;;;;;7.55;1.80;;;;;;;-2.05;53.48;101797.78;10433740;28;20049;-66
2024/01/09 10:03:25;;;;;;;7.45;2.33;;;;;;;-2.00;53.11;101790.53;10443115;28;20044;-66
2024/01/09 10:08:31;;;;;;;3.35;1.45;;;;;;;-1.86;53.18;101784.72;10435202;28;20049;-70
2024/01/09 10:13:34;;;;;;;4.43;1.40;;;;;;;-1.81;52.90;101785.41;10416741;28;20071;-70
2024/01/09 10:18:35;;;;;;;6.43;2.13;;;;;;;-1.65;53.04;101779.53;10436332;28;20049;-66
2024/01/09 10:23:39;;;;;;;10.20;2.47;;;;;;;-1.61;52.59;101779.34;10449367;28;20045;-67
2024/01/09 10:28:41;;;;;;;7.70;2.58;;;;;;;-1.53;52.34;101767.63;10444873;28;20044;-66
2024/01/09 10:33:42;;;;;;;6.63;2.83;;;;;;;-1.42;52.38;101770.69;10443320;28;20985;-66
2024/01/09 10:38:46;;;;;;;7.03;2.40;;;;;;;-1.28;51.75;101752.50;10433751;28;20773;-65
2024/01/09 10:43:49;;;;;;;5.78;2.13;;;;;;;-1.12;51.49;101746.56;10438658;28;20496;-67
2024/01/09 10:48:51;;;;;;;7.05;2.45;;;;;;;-0.97;51.21;101737.13;10435498;28;20076;-64
2024/01/09 10:53:53;;;;;;;4.80;1.77;;;;;;;-0.89;51.75;101738.50;10443909;28;20040;-66
2024/01/09 10:58:57;;;;;;;7.32;2.53;;;;;;;-0.74;51.50;101734.31;10439580;28;20123;-65
2024/01/09 11:03:59;;;;;;;4.13;2.08;;;;;;;-0.67;51.20;101737.53;10447617;28;20396;-64
2024/01/09 11:09:04;;;;;;;6.35;2.40;;;;;;;-0.52;50.66;101725.44;10439008;28;20128;-65
2024/01/09 11:14:09;;;;;;;6.32;2.53;;;;;;;-0.39;50.04;101729.22;10437503;28;20425;-64
2024/01/09 11:19:13;;;;;;;7.70;2.15;;;;;;;-0.26;49.92;101727.72;10437768;28;20048;-67
2024/01/09 11:24:15;;;;;;;5.93;2.22;;;;;;;0.05;50.09;101717.47;10442693;28;20056;-69
2024/01/09 11:29:49;;;;;;;6.20;2.33;;;;;;;0.61;49.15;101707.66;10425472;28;20052;-68
2024/01/09 11:35:19;;;;;;;6.18;1.92;;;;;;;0.78;48.79;101686.47;10444002;28;20048;-65
2024/01/09 11:40:21;;;;;;;5.80;1.90;;;;;;;0.83;48.57;101676.50;10448793;28;20076;-65
2024/01/09 11:45:25;;;;;;;7.40;2.47;;;;;;;0.76;49.07;101670.66;10429448;28;20091;-69
2024/01/09 11:50:26;;;;;;;4.90;2.60;;;;;;;0.74;48.91;101667.25;10449021;28;20072;-63
2024/01/09 11:55:29;;;;;;;7.22;2.72;;;;;;;0.68;48.41;101662.28;10447312;28;20457;-66
2024/01/09 12:00:30;;;;;;;10.57;2.92;;;;;;;0.73;48.48;101656.72;10444752;28;20038;-62
2024/01/09 12:05:33;;;;;;;7.20;2.95;;;;;;;0.68;47.34;101651.69;10442476;28;20049;-65
2024/01/09 12:10:43;;;;;;;6.32;2.08;;;;;;;0.73;47.49;101647.03;10444246;28;20061;-67
2024/01/09 12:15:46;;;;;;;12.50;5.95;;;;;;;0.78;47.70;101644.13;10453549;28;20048;-66
2024/01/09 12:20:47;;;;;;;6.05;2.00;;;;;;;0.83;47.23;101639.47;10448385;28;20048;-66
2024/01/09 12:25:49;;;;;;;7.15;2.50;;;;;;;0.91;46.64;101633.72;10482122;28;20080;-69
2024/01/09 12:30:52;;;;;;;7.60;2.70;;;;;;;0.87;46.79;101635.72;10480409;28;20045;-66
2024/01/09 12:35:53;;;;;;;7.00;2.00;;;;;;;0.95;46.25;101624.72;10496531;28;20100;-66
2024/01/09 12:41:00;;;;;;;8.07;2.83;;;;;;;0.93;45.71;101610.72;10491865;28;20060;-66
2024/01/09 12:46:01;;;;;;;7.75;2.55;;;;;;;0.93;45.70;101614.19;10491487;28;20053;-67
2024/01/09 12:51:05;;;;;;;6.50;2.00;;;;;;;1.05;46.04;101601.22;10444565;28;20067;-67
2024/01/09 12:56:08;;;;;;;9.75;1.98;;;;;;;1.15;45.62;101607.75;10445952;28;20068;-66
2024/01/09 13:01:13;;;;;;;5.90;2.42;;;;;;;1.19;45.76;101596.03;10454093;28;20056;-72
2024/01/09 13:06:15;;;;;;;7.68;2.22;;;;;;;1.23;45.46;101591.44;10440965;28;20448;-70
2024/01/09 13:11:17;;;;;;;5.20;2.63;;;;;;;1.30;45.44;101590.97;10443217;28;20045;-67
2024/01/09 13:16:18;;;;;;;6.00;2.20;;;;;;;1.33;44.94;101579.38;10441582;28;20044;-69
2024/01/09 13:21:20;;;;;;;6.97;2.38;;;;;;;1.34;44.60;101591.66;10438069;28;20044;-69
2024/01/09 13:26:22;;;;;;;4.75;2.42;;;;;;;1.34;44.80;101579.31;10432479;28;20048;-68
2024/01/09 13:31:23;;;;;;;7.90;3.15;;;;;;;1.29;44.80;101594.59;10459383;28;20128;-68
2024/01/09 13:36:25;;;;;;;6.50;2.35;;;;;;;1.34;44.38;101594.31;10454393;28;20053;-70
2024/01/09 13:41:27;;;;;;;10.20;4.00;;;;;;;1.30;44.30;101590.97;10436435;28;20081;-68
2024/01/09 13:46:30;;;;;;;7.32;2.58;;;;;;;1.30;43.56;101595.44;10454676;28;20518;-70
2024/01/09 13:51:32;;;;;;;8.82;2.38;;;;;;;1.33;43.56;101584.69;10454379;28;20567;-68
2024/01/09 13:56:36;;;;;;;12.82;3.65;;;;;;;1.34;43.69;101589.91;10432677;28;20052;-66
2024/01/09 14:01:39;;;;;;;7.78;2.47;;;;;;;1.36;43.75;101571.25;10476671;28;20032;-66
2024/01/09 14:06:45;;;;;;;8.40;2.03;;;;;;;1.35;43.78;101586.28;10475596;28;20085;-66
2024/01/09 14:11:47;;;;;;;9.65;3.25;;;;;;;1.31;43.36;101583.91;10492768;28;20055;-66
2024/01/09 14:16:49;;;;;;;8.90;3.17;;;;;;;1.30;42.96;101569.78;10482829;28;20056;-67
2024/01/09 14:37:44;;;;;;;7.35;2.53;;;;;;;1.25;43.42;101585.09;10994822;22;20062;-84
2024/01/09 14:47:50;;;;;;;7.38;2.90;;;;;;;1.29;42.79;101583.16;10351261;28;20037;-66
2024/01/09 14:52:52;;;;;;;8.85;2.75;;;;;;;1.24;43.28;101580.72;10348346;28;20042;-65
2024/01/09 14:57:53;;;;;;;6.28;2.65;;;;;;;1.19;42.89;101578.34;10354312;28;20034;-66
2024/01/09 15:02:57;;;;;;;12.07;2.78;;;;;;;1.19;43.20;101577.50;10350140;28;20030;-66
2024/01/09 15:07:59;;;;;;;7.03;2.65;;;;;;;1.11;43.12;101577.91;10338075;28;20509;-68
2024/01/09 15:13:00;;;;;;;8.60;2.58;;;;;;;1.11;43.28;101580.56;10293932;28;20366;-68
2024/01/09 15:18:02;;;;;;;7.85;2.70;;;;;;;1.03;43.50;101587.22;10294912;28;20054;-69
2024/01/09 15:23:04;;;;;;;9.88;2.50;;;;;;;0.95;42.75;101585.84;10297137;28;20468;-67
2024/01/09 15:28:05;;;;;;;9.00;3.38;;;;;;;0.89;43.80;101583.53;10297516;28;20062;-68
2024/01/09 15:33:08;;;;;;;9.18;3.00;;;;;;;0.83;43.42;101586.53;10296289;28;20051;-67
2024/01/09 15:38:10;;;;;;;9.95;2.75;;;;;;;0.73;43.15;101588.81;10298823;28;20050;-68
2024/01/09 15:43:12;;;;;;;8.98;2.08;;;;;;;0.62;43.39;101580.56;10304970;28;20043;-67
2024/01/09 15:48:13;;;;;;;4.00;1.85;;;;;;;0.55;43.93;101581.81;10301435;28;20057;-69
2024/01/09 15:53:16;;;;;;;6.80;2.25;;;;;;;0.47;43.84;101576.09;10302663;28;20501;-68
2024/01/09 15:58:17;;;;;;;6.57;2.67;;;;;;;0.37;43.35;101575.72;10294059;28;20133;-68
2024/01/09 16:03:19;;;;;;;3.55;1.77;;;;;;;0.33;43.34;101577.66;10297359;28;20042;-69
2024/01/09 16:08:20;;;;;;;6.63;2.45;;;;;;;0.26;42.80;101573.63;10298171;28;20046;-68
2024/01/09 16:13:25;;;;;;;6.82;2.10;;;;;;;0.16;43.68;101580.34;10308627;28;20058;-70
2024/01/09 16:18:27;;;;;;;10.00;2.90;;;;;;;0.16;42.80;101582.97;10293146;28;20045;-70
2024/01/09 16:23:28;;;;;;;6.15;2.70;;;;;;;0.10;43.55;101591.19;10292873;28;20358;-69
2024/01/09 16:28:30;;;;;;;9.52;3.10;;;;;;;0.05;43.52;101599.38;10316626;28;20647;-61
2024/01/09 16:33:32;;;;;;;10.48;3.72;;;;;;;-0.05;43.20;101609.53;10315713;28;20046;-62
2024/01/09 16:38:33;;;;;;;7.00;2.10;;;;;;;-0.13;43.60;101605.59;10304935;28;20116;-61
2024/01/09 16:43:35;;;;;;;9.05;2.72;;;;;;;-0.21;43.36;101609.44;10303727;28;20121;-61
2024/01/09 16:48:36;;;;;;;6.32;2.90;;;;;;;-0.31;43.34;101610.84;10310225;28;20750;-61
2024/01/09 16:53:45;;;;;;;6.75;2.08;;;;;;;-0.35;43.56;101611.91;10310818;28;20042;-61
2024/01/09 16:58:48;;;;;;;6.75;2.67;;;;;;;-0.41;43.46;101617.50;10315822;28;20129;-61
2024/01/09 17:03:51;;;;;;;9.35;2.50;;;;;;;-0.47;43.24;101623.06;10307000;28;20512;-61
2024/01/09 17:08:53;;;;;;;8.95;3.30;;;;;;;-0.53;43.02;101623.34;10302581;28;20461;-61
2024/01/09 17:13:55;;;;;;;9.05;3.10;;;;;;;-0.57;43.31;101621.78;10306985;28;20047;-61
2024/01/09 17:18:57;;;;;;;7.45;2.78;;;;;;;-0.63;43.43;101623.78;10307022;28;20461;-62
2024/01/09 17:23:59;;;;;;;6.20;3.28;;;;;;;-0.69;42.99;101624.09;10302277;28;20113;-61
2024/01/09 17:29:00;;;;;;;7.05;2.60;;;;;;;-0.75;43.16;101626.13;10300669;28;20050;-62
2024/01/09 17:34:02;;;;;;;7.63;2.67;;;;;;;-0.81;42.95;101624.63;10312773;28;20129;-62
2024/01/09 17:39:04;;;;;;;7.82;2.95;;;;;;;-0.85;43.36;101628.34;10300798;28;20561;-62
2024/01/09 17:44:07;;;;;;;10.77;2.90;;;;;;;-0.91;43.42;101629.50;10297426;28;20101;-63
2024/01/09 17:49:08;;;;;;;8.57;2.42;;;;;;;-0.95;43.01;101627.91;10293316;28;20034;-61
2024/01/09 17:54:10;;;;;;;6.60;2.28;;;;;;;-1.01;43.59;101631.72;10308527;28;20057;-63
2024/01/09 17:59:11;;;;;;;9.98;3.38;;;;;;;-1.06;43.50;101632.84;10300924;28;20049;-61
2024/01/09 18:04:16;;;;;;;12.20;3.38;;;;;;;-1.12;43.28;101651.59;10305203;28;20035;-64
2024/01/09 18:09:21;;;;;;;7.65;2.75;;;;;;;-1.17;43.66;101657.06;10303058;28;20121;-64
2024/01/09 18:14:23;;;;;;;10.40;3.50;;;;;;;-1.23;43.59;101658.19;10295750;28;20065;-63
2024/01/09 18:19:25;;;;;;;11.38;3.33;;;;;;;-1.27;43.71;101651.31;10292165;28;20050;-60
2024/01/09 18:24:29;;;;;;;8.48;3.17;;;;;;;-1.31;44.09;101659.44;10293086;28;20042;-62
2024/01/09 18:29:31;;;;;;;9.88;2.78;;;;;;;-1.36;44.15;101659.66;10297600;28;20042;-62
2024/01/09 18:34:33;;;;;;;6.78;2.83;;;;;;;-1.45;43.85;101671.44;10299032;28;20058;-63
2024/01/09 18:39:36;;;;;;;13.27;4.28;;;;;;;-1.54;44.41;101665.72;10291888;28;20043;-61
2024/01/09 18:44:40;;;;;;;11.32;3.95;;;;;;;-1.60;44.28;101666.81;10291625;28;20050;-62
2024/01/09 18:49:41;;;;;;;8.27;3.20;;;;;;;-1.66;44.19;101675.00;10279626;28;20433;-61
2024/01/09 18:54:43;;;;;;;8.32;3.33;;;;;;;-1.72;44.40;101673.47;10282653;28;20507;-61
2024/01/09 18:59:44;;;;;;;8.55;3.00;;;;;;;-1.72;44.41;101678.75;10285105;28;20101;-61
2024/01/09 19:04:46;;;;;;;13.77;3.90;;;;;;;-1.83;44.43;101675.72;10296236;28;20145;-61
2024/01/09 19:09:49;;;;;;;9.32;3.92;;;;;;;-1.91;44.92;101670.75;10296539;28;20057;-61
2024/01/09 19:14:50;;;;;;;9.10;3.53;;;;;;;-1.96;44.85;101672.72;10296716;28;20157;-61
2024/01/09 19:19:54;;;;;;;12.93;4.82;;;;;;;-2.03;45.13;101671.25;10285956;28;20050;-61
2024/01/09 19:24:56;;;;;;;11.90;4.20;;;;;;;-2.08;45.07;101675.84;10299311;28;20058;-60
2024/01/09 19:29:57;;;;;;;7.95;2.95;;;;;;;-2.12;45.23;101679.53;10298169;28;20054;-56
2024/01/09 19:34:59;;;;;;;13.32;4.43;;;;;;;-2.18;45.39;101685.03;10316411;28;20517;-57
2024/01/09 19:40:00;;;;;;;13.45;4.60;;;;;;;-2.23;45.40;101696.63;10295248;28;20042;-56
2024/01/09 19:45:03;;;;;;;11.55;4.22;;;;;;;-2.30;45.64;101700.41;10312596;28;20145;-56
2024/01/09 19:50:04;;;;;;;11.30;3.58;;;;;;;-2.34;45.67;101705.84;10300478;28;20049;-55
2024/01/09 19:55:06;;;;;;;10.90;3.67;;;;;;;-2.41;45.87;101705.22;10298392;28;20057;-54
2024/01/09 20:00:08;;;;;;;13.88;4.50;;;;;;;-2.45;45.82;101714.16;10285621;28;20137;-56
2024/01/09 20:05:10;;;;;;;12.55;4.07;;;;;;;-2.49;46.24;101710.81;10292518;28;20062;-54
2024/01/09 20:10:12;;;;;;;14.40;4.97;;;;;;;-2.54;46.36;101717.16;10298764;28;20118;-54
2024/01/09 20:15:16;;;;;;;13.32;4.18;;;;;;;-2.57;46.28;101712.00;10310292;28;20494;-55
2024/01/09 20:20:18;;;;;;;14.57;4.88;;;;;;;-2.58;46.52;101710.28;10311265;28;20058;-55
2024/01/09 20:25:20;;;;;;;16.70;5.28;;;;;;;-2.60;46.39;101718.25;10313200;28;20062;-55
2024/01/09 20:30:22;;;;;;;19.48;4.88;;;;;;;-2.64;46.77;101704.34;10302842;28;20043;-54
2024/01/09 20:35:24;;;;;;;18.98;5.10;;;;;;;-2.69;46.94;101711.53;10290114;28;20132;-55
2024/01/09 20:40:26;;;;;;;13.07;5.18;;;;;;;-2.76;46.87;101706.53;10319295;28;20470;-55
2024/01/09 20:45:28;;;;;;;12.93;5.53;;;;;;;-2.77;47.15;101704.84;10289963;28;20068;-55
2024/01/09 20:50:29;;;;;;;19.30;5.80;;;;;;;-2.86;47.09;101708.69;10307108;28;20338;-57
2024/01/09 20:55:31;;;;;;;20.17;6.85;;;;;;;-2.89;47.43;101711.41;10300965;28;20386;-57
2024/01/09 21:00:32;;;;;;;13.23;5.10;;;;;;;-2.91;47.51;101721.97;10297362;28;20138;-56
2024/01/09 21:05:35;;;;;;;15.77;5.47;;;;;;;-2.90;47.46;101717.56;10295686;28;20054;-56
2024/01/09 21:10:42;;;;;;;19.67;6.50;;;;;;;-2.96;47.71;101723.06;10298148;28;20101;-58
2024/01/09 21:15:43;;;;;;;16.50;5.47;;;;;;;-2.97;47.69;101726.63;10300818;28;20054;-56
2024/01/09 21:20:45;;;;;;;17.30;6.35;;;;;;;-2.99;47.94;101732.78;10303138;28;20049;-56
2024/01/09 21:25:46;;;;;;;16.55;5.78;;;;;;;-3.04;47.75;101723.34;10301547;28;20732;-56
2024/01/09 21:30:48;;;;;;;19.23;5.78;;;;;;;-3.07;48.42;101719.06;10304775;28;20062;-55
2024/01/09 21:35:49;;;;;;;18.15;5.82;;;;;;;-3.05;48.20;101719.84;10303161;28;20103;-55
2024/01/09 21:40:54;;;;;;;19.38;5.00;;;;;;;-3.09;48.04;101717.41;10313322;28;20069;-58
2024/01/09 21:46:00;;;;;;;18.77;6.30;;;;;;;-3.12;48.36;101718.38;10273956;28;20047;-55
2024/01/09 21:51:01;;;;;;;24.60;9.02;;;;;;;-3.06;48.41;101717.28;10258910;28;20529;-56
2024/01/09 21:56:03;;;;;;;22.45;6.78;;;;;;;-3.05;48.31;101711.97;10257580;28;20124;-56
2024/01/09 22:01:04;;;;;;;16.50;6.18;;;;;;;-3.09;48.51;101713.00;10257121;28;20055;-56
2024/01/09 22:06:06;;;;;;;17.50;5.03;;;;;;;-3.10;48.53;101707.78;10261662;28;20047;-56
2024/01/09 22:11:09;;;;;;;20.55;6.47;;;;;;;-3.13;48.62;101698.22;10257943;28;20055;-57
2024/01/09 22:16:11;;;;;;;19.20;6.47;;;;;;;-3.17;48.80;101693.16;10253968;28;20531;-58
2024/01/09 22:21:13;;;;;;;17.13;5.93;;;;;;;-3.20;49.04;101702.88;10252806;28;20378;-58
2024/01/09 22:26:19;;;;;;;20.67;5.80;;;;;;;-3.23;49.20;101707.38;10255875;28;20047;-59
2024/01/09 22:31:20;;;;;;;17.33;5.57;;;;;;;-3.29;49.23;101716.31;10251779;28;20237;-58
2024/01/09 22:36:23;;;;;;;24.60;7.13;;;;;;;-3.32;49.43;101707.66;10256724;28;20050;-58
2024/01/09 22:41:25;;;;;;;18.63;5.63;;;;;;;-3.32;49.17;101708.53;10248982;28;20066;-58
2024/01/09 22:46:26;;;;;;;18.35;5.88;;;;;;;-3.31;49.72;101709.41;10285642;28;20057;-59
2024/01/09 22:51:28;;;;;;;18.45;6.47;;;;;;;-3.31;49.52;101712.88;10296676;28;20129;-59
2024/01/09 22:56:29;;;;;;;21.55;6.70;;;;;;;-3.35;49.52;101719.16;10300768;28;20042;-59
2024/01/09 23:01:31;;;;;;;19.67;6.95;;;;;;;-3.35;49.93;101716.53;10296642;28;20101;-59
2024/01/09 23:06:32;;;;;;;18.95;7.20;;;;;;;-3.39;49.98;101710.53;10295963;28;20117;-58
2024/01/09 23:11:33;;;;;;;18.77;5.93;;;;;;;-3.43;49.90;101718.56;10289410;28;20521;-57
2024/01/09 23:16:35;;;;;;;28.30;8.50;;;;;;;-3.44;50.49;101712.44;10293398;28;20047;-57
2024/01/09 23:21:37;;;;;;;21.25;6.88;;;;;;;-3.51;50.23;101694.31;10290252;28;20046;-58
2024/01/09 23:26:38;;;;;;;20.15;6.55;;;;;;;-3.53;50.58;101696.16;10285247;28;20046;-58
2024/01/09 23:31:39;;;;;;;18.48;7.10;;;;;;;-3.53;50.44;101694.38;10312167;28;20046;-59